createdAt,value
2018-10-03T00:02:25.097Z,97749.40
2018-10-03T00:07:19.544Z,97739.08
2018-10-03T00:12:13.968Z,97727.03
2018-10-03T00:17:08.420Z,97733.82
2018-10-03T00:22:02.992Z,97738.98
2018-10-03T00:26:57.416Z,97742.30
2018-10-03T00:31:51.839Z,97748.88
2018-10-03T00:36:46.298Z,97746.83
2018-10-03T00:41:41.751Z,97739.59
2018-10-03T00:46:36.193Z,97748.14
2018-10-03T00:51:30.729Z,97748.12
2018-10-03T00:56:25.209Z,97750.75
2018-10-03T01:01:19.636Z,97739.66
2018-10-03T01:06:14.207Z,97749.86
2018-10-03T01:11:08.635Z,97754.94
2018-10-03T01:16:03.044Z,97744.09
2018-10-03T01:20:57.538Z,97738.67
2018-10-03T01:25:51.933Z,97745.52
2018-10-03T01:30:46.367Z,97757.65
2018-10-03T01:35:40.880Z,97763.21
2018-10-03T01:40:35.393Z,97745.61
2018-10-03T01:45:29.836Z,97741.19
2018-10-03T01:50:24.232Z,97742.28
2018-10-03T01:55:18.676Z,97747.60
2018-10-03T02:00:13.086Z,97741.86
2018-10-03T02:05:07.577Z,97760.06
2018-10-03T02:10:02.084Z,97744.18
2018-10-03T02:14:56.511Z,97742.80
2018-10-03T02:19:50.924Z,97739.66
2018-10-03T02:24:45.332Z,97738.64
2018-10-03T02:29:39.791Z,97745.33
2018-10-03T02:34:34.205Z,97751.08
2018-10-03T02:39:28.657Z,97740.97
2018-10-03T02:44:23.097Z,97741.00
2018-10-03T02:49:17.508Z,97732.50
2018-10-03T02:54:11.949Z,97730.19
2018-10-03T02:59:06.568Z,97731.19
2018-10-03T03:04:01.000Z,97734.00
2018-10-03T03:08:55.496Z,97739.16
2018-10-03T03:13:49.838Z,97744.41
2018-10-03T03:18:44.294Z,97741.88
2018-10-03T03:23:38.781Z,97740.98
2018-10-03T03:28:33.240Z,97746.13
2018-10-03T03:33:27.634Z,97748.27
2018-10-03T03:38:22.146Z,97752.73
2018-10-03T03:43:16.602Z,97755.42
2018-10-03T03:48:11.068Z,97759.70
2018-10-03T03:53:05.693Z,97755.79
2018-10-03T03:58:00.160Z,97761.14
2018-10-03T04:02:54.577Z,97764.87
2018-10-03T04:07:48.993Z,97764.80
2018-10-03T04:12:43.408Z,97780.97
2018-10-03T04:17:37.852Z,97781.11
2018-10-03T04:22:32.252Z,97772.70
2018-10-03T04:27:26.696Z,97780.27
2018-10-03T04:32:21.148Z,97792.91
2018-10-03T04:37:15.546Z,97790.47
2018-10-03T04:42:10.003Z,97800.48
2018-10-03T04:47:04.433Z,97776.84
2018-10-03T04:51:58.844Z,97774.23
2018-10-03T04:56:53.254Z,97788.66
2018-10-03T05:01:47.684Z,97791.39
2018-10-03T05:06:42.248Z,97798.66
2018-10-03T05:11:36.700Z,97803.91
2018-10-03T05:16:31.165Z,97802.51
2018-10-03T05:21:25.605Z,97807.38
2018-10-03T05:26:20.094Z,97805.27
2018-10-03T05:31:14.548Z,97816.17
2018-10-03T05:36:09.002Z,97819.59
2018-10-03T05:41:03.431Z,97828.19
2018-10-03T05:45:57.869Z,97826.66
2018-10-03T05:50:52.332Z,97826.95
2018-10-03T05:55:46.771Z,97829.06
2018-10-03T06:00:41.248Z,97835.24
2018-10-03T06:05:35.648Z,97839.16
2018-10-03T06:10:30.182Z,97830.05
2018-10-03T06:15:24.597Z,97835.32
2018-10-03T06:20:19.030Z,97841.47
2018-10-03T06:25:13.456Z,97840.00
2018-10-03T06:30:07.981Z,97847.83
2018-10-03T06:35:02.425Z,97842.56
2018-10-03T06:39:56.892Z,97831.22
2018-10-03T06:44:51.304Z,97845.05
2018-10-03T06:49:45.732Z,97842.80
2018-10-03T06:54:40.188Z,97849.12
2018-10-03T06:59:34.648Z,97844.99
2018-10-03T07:04:29.086Z,97836.87
2018-10-03T07:09:23.564Z,97853.35
2018-10-03T07:14:17.988Z,97844.70
2018-10-03T07:19:12.474Z,97835.85
2018-10-03T07:24:07.060Z,97836.87
2018-10-03T07:29:01.491Z,97845.34
2018-10-03T07:33:55.890Z,97862.27
2018-10-03T07:38:50.361Z,97875.28
2018-10-03T07:43:44.800Z,97867.92
2018-10-03T07:48:39.241Z,97873.03
2018-10-03T07:53:33.697Z,97884.28
2018-10-03T07:58:28.082Z,97883.41
2018-10-03T08:03:22.477Z,97883.73
2018-10-03T08:08:17.004Z,97896.50
2018-10-03T08:13:11.468Z,97896.36
2018-10-03T08:18:06.020Z,97901.52
2018-10-03T08:23:00.660Z,97898.52
2018-10-03T08:27:55.564Z,97904.23
2018-10-03T08:32:50.867Z,97898.50
2018-10-03T08:37:45.543Z,97902.15
2018-10-03T08:42:40.043Z,97903.45
2018-10-03T08:47:34.512Z,97904.84
2018-10-03T08:52:29.069Z,97902.59
2018-10-03T08:57:23.489Z,97905.69
2018-10-03T09:02:17.917Z,97920.23
2018-10-03T09:07:12.452Z,97913.23
2018-10-03T09:12:07.073Z,97911.83
2018-10-03T09:17:01.501Z,97892.34
2018-10-03T09:21:56.017Z,97884.41
2018-10-03T09:26:50.468Z,97888.38
2018-10-03T09:31:45.021Z,97896.81
2018-10-03T09:36:39.514Z,97900.55
2018-10-03T09:41:33.943Z,97900.85
2018-10-03T09:46:28.370Z,97917.20
2018-10-03T09:51:22.801Z,97911.70
2018-10-03T09:56:17.246Z,97920.78
2018-10-03T10:01:15.288Z,97928.67
2018-10-03T10:06:09.828Z,97934.17
2018-10-03T10:11:04.318Z,97933.53
2018-10-03T10:15:58.784Z,97929.69
2018-10-03T10:20:53.256Z,97931.27
2018-10-03T10:25:47.677Z,97930.41
2018-10-03T10:30:42.112Z,97925.86
2018-10-03T10:35:36.553Z,97921.46
2018-10-03T10:40:31.112Z,97919.44
2018-10-03T10:45:25.604Z,97920.09
2018-10-03T10:50:20.125Z,97915.06
2018-10-03T10:55:14.530Z,97918.64
2018-10-03T11:00:09.160Z,97918.53
2018-10-03T11:05:03.619Z,97918.86
2018-10-03T11:09:58.037Z,97914.69
2018-10-03T11:14:52.551Z,97909.42
2018-10-03T11:19:47.080Z,97907.02
2018-10-03T11:24:41.740Z,97886.70
2018-10-03T11:29:36.062Z,97888.61
2018-10-03T11:34:30.610Z,97891.98
2018-10-03T11:39:25.152Z,97887.98
2018-10-03T11:44:19.632Z,97872.85
2018-10-03T11:49:14.108Z,97865.61
2018-10-03T11:54:08.947Z,97872.09
2018-10-03T11:59:03.406Z,97864.12
2018-10-03T12:03:57.856Z,97868.50
2018-10-03T12:08:52.302Z,97859.77
2018-10-03T12:13:46.755Z,97865.08
2018-10-03T12:18:41.176Z,97867.48
2018-10-03T12:23:35.588Z,97859.93
2018-10-03T12:28:30.060Z,97859.46
2018-10-03T12:33:24.543Z,97854.58
2018-10-03T12:38:18.997Z,97850.53
2018-10-03T12:43:13.444Z,97847.91
2018-10-03T12:48:07.900Z,97844.02
2018-10-03T12:53:02.389Z,97849.20
2018-10-03T12:57:56.824Z,97841.68
2018-10-03T13:02:51.214Z,97840.13
2018-10-03T13:07:45.641Z,97839.47
2018-10-03T13:12:40.126Z,97842.94
2018-10-03T13:17:34.564Z,97835.20
2018-10-03T13:22:29.042Z,97834.77
2018-10-03T13:27:23.476Z,97834.33
2018-10-03T13:32:17.973Z,97831.43
2018-10-03T13:37:12.550Z,97826.49
2018-10-03T13:42:07.072Z,97823.58
2018-10-03T13:47:01.525Z,97818.72
2018-10-03T13:51:55.940Z,97826.67
2018-10-03T13:56:50.474Z,97824.93
2018-10-03T14:01:44.973Z,97820.80
2018-10-03T14:06:39.333Z,97820.23
2018-10-03T14:11:33.841Z,97819.33
2018-10-03T14:16:28.273Z,97827.00
2018-10-03T14:21:22.669Z,97821.91
2018-10-03T14:26:17.092Z,97823.49
2018-10-03T14:31:11.613Z,97824.48
2018-10-03T14:36:06.045Z,97820.30
2018-10-03T14:41:00.520Z,97832.62
2018-10-03T14:45:55.624Z,97832.03
2018-10-03T14:50:50.100Z,97841.17
2018-10-03T14:55:44.585Z,97840.83
2018-10-03T15:00:39.068Z,97833.95
2018-10-03T15:05:33.706Z,97837.01
2018-10-03T15:10:28.167Z,97839.05
2018-10-03T15:15:22.648Z,97834.03
2018-10-03T15:20:17.066Z,97826.14
2018-10-03T15:25:11.496Z,97829.41
2018-10-03T15:30:06.151Z,97836.40
2018-10-03T15:35:00.580Z,97841.39
2018-10-03T15:39:55.040Z,97845.28
2018-10-03T15:44:49.617Z,97848.33
2018-10-03T15:49:44.053Z,97849.86
2018-10-03T15:54:38.462Z,97854.67
2018-10-03T15:59:33.009Z,97853.78
2018-10-03T16:04:27.489Z,97855.06
2018-10-03T16:09:21.881Z,97866.51
2018-10-03T16:14:16.315Z,97872.80
2018-10-03T16:19:10.740Z,97869.63
2018-10-03T16:24:05.201Z,97874.92
2018-10-03T16:28:59.590Z,97879.25
2018-10-03T16:33:54.041Z,97890.14
2018-10-03T16:38:48.552Z,97895.30
2018-10-03T16:43:42.909Z,97897.84
2018-10-03T16:48:37.415Z,97901.81
2018-10-03T16:53:31.820Z,97899.48
2018-10-03T16:58:26.285Z,97901.22
2018-10-03T17:03:20.789Z,97902.73
2018-10-03T17:08:15.213Z,97906.38
2018-10-03T17:13:09.713Z,97911.41
2018-10-03T17:18:04.161Z,97914.98
2018-10-03T17:22:58.608Z,97919.73
2018-10-03T17:27:53.009Z,97922.05
2018-10-03T17:32:47.476Z,97928.70
2018-10-03T17:37:41.930Z,97939.86
2018-10-03T17:42:36.451Z,97937.16
2018-10-03T17:47:30.968Z,97938.47
2018-10-03T17:52:25.458Z,97943.00
2018-10-03T17:57:19.872Z,97950.11
2018-10-03T18:02:14.952Z,97959.98
2018-10-03T18:07:09.541Z,97960.14
2018-10-03T18:12:04.020Z,97958.52
2018-10-03T18:16:58.461Z,97962.33
2018-10-03T18:21:52.920Z,97964.66
2018-10-03T18:26:47.371Z,97971.33
2018-10-03T18:31:41.863Z,97969.56
2018-10-03T18:36:36.377Z,97975.48
2018-10-03T18:41:30.820Z,97968.42
2018-10-03T18:46:25.274Z,97971.92
2018-10-03T18:51:19.774Z,97975.30
2018-10-03T18:56:14.285Z,97971.16
2018-10-03T19:01:08.850Z,97975.97
2018-10-03T19:06:03.443Z,97987.59
2018-10-03T19:10:57.946Z,97984.81
2018-10-03T19:15:52.489Z,97985.48
2018-10-03T19:20:46.973Z,97990.91
2018-10-03T19:25:41.429Z,97994.52
2018-10-03T19:30:35.972Z,97998.40
2018-10-03T19:35:30.484Z,97990.45
2018-10-03T19:40:25.001Z,97984.13
2018-10-03T19:45:19.589Z,98002.73
2018-10-03T19:50:14.095Z,98004.48
2018-10-03T19:55:08.597Z,98010.34
2018-10-03T20:00:03.083Z,98008.31
2018-10-03T20:04:57.570Z,98012.11
2018-10-03T20:09:52.069Z,98008.18
2018-10-03T20:14:46.541Z,98006.46
2018-10-03T20:19:41.100Z,98005.87
2018-10-03T20:24:35.582Z,98011.84
2018-10-03T20:29:30.054Z,98013.36
2018-10-03T20:34:24.528Z,98008.72
2018-10-03T20:39:18.956Z,98011.63
2018-10-03T20:44:13.390Z,98002.66
2018-10-03T20:49:07.844Z,98000.62
2018-10-03T20:54:02.293Z,97997.07
2018-10-03T20:58:56.789Z,97986.36
2018-10-03T21:03:51.232Z,97984.84
2018-10-03T21:08:45.778Z,97993.45
2018-10-03T21:13:40.138Z,97989.98
2018-10-03T21:18:34.556Z,97989.06
2018-10-03T21:23:29.000Z,97979.56
2018-10-03T21:28:23.459Z,97984.20
2018-10-03T21:33:17.896Z,97976.47
2018-10-03T21:38:12.340Z,97972.91
2018-10-03T21:43:06.877Z,97974.22
2018-10-03T21:48:01.324Z,97973.49
2018-10-03T21:52:55.795Z,97977.70
2018-10-03T21:57:50.252Z,97977.70
2018-10-03T22:02:44.709Z,97981.84
2018-10-03T22:07:39.938Z,97986.14
2018-10-03T22:12:34.392Z,97981.75
2018-10-03T22:17:28.852Z,97985.68
2018-10-03T22:22:23.273Z,97980.74
2018-10-03T22:27:17.784Z,97981.33
2018-10-03T22:32:12.204Z,97989.05
2018-10-03T22:37:07.190Z,97986.45
2018-10-03T22:42:01.680Z,97979.98
2018-10-03T22:46:56.109Z,97976.13
2018-10-03T22:51:50.520Z,97977.03
2018-10-03T22:56:44.928Z,97980.11
2018-10-03T23:01:39.432Z,97984.48
2018-10-03T23:06:33.856Z,97986.88
2018-10-03T23:11:28.292Z,97987.81
2018-10-03T23:16:22.693Z,97986.91
2018-10-03T23:21:17.129Z,97992.01
2018-10-03T23:26:11.629Z,97993.41
2018-10-03T23:31:06.098Z,97994.87
2018-10-03T23:36:00.544Z,97993.55
2018-10-03T23:40:55.120Z,97991.88
2018-10-03T23:45:49.608Z,97996.66
2018-10-03T23:50:44.042Z,97993.57
2018-10-03T23:55:38.504Z,97999.25
